Huvudsida
METAR-TAF:

METAR-TAF

Flygplatser :

Siirt, Turkiet

latitud: 37-58-41N, longitud: 41-50-21E, höjd: 610 m

Aktuellt väderrapport

Denna rapport gjordes för 1 timme och 25 minuter sedan, klockan 08:50 UTC
Vind 9 kt från väst/nordväst
Temperatur 38°C
Fuktighet 20%
Tryck 1004 hPa
Sikt 10 km eller mer
Inga moln under 1 500 m eller inga cumulonimbus

METAR: LTCL 220850Z 29009KT CAVOK 38/11 Q1004

Tid: 13:15 (10:15 UTC)

Väderprognos

Denna rapport gjordes för 2 timmar och 35 minuter sedan, klockan 07:40 UTC
Prognos gäller från 22 kl. 09 UTC till 22 kl. 18 UTC
Vind 14 kt från väst/nordväst
Sikt 10 km eller mer
Inga moln under 1 500 m eller inga cumulonimbus

TAF: LTCL 220740Z 2209/2218 29014KT CAVOK

Aktuella väderrapporter och prognoser från 4000 flygplatser (METAR- och TAF-rapporter).

De tillgängliga stationerna syns som gula och röda prickar på kartan.

För musen över prickarna för att se namnen på stationerna.

Klicka sedan för att få väderrapporter och prognoser.

För att ändra kartan: Klicka på de gröna knapparna med ett svart kors på för att zooma in; den gröna knappen med ett streck på för att zooma ut; eller på de gröna pilarna för angränsande kartor.


METAR-TAF: